sensor_id;sensor_type;location;lat;lon;timestamp;temperature;humidity
61004;DHT22;46889;37.310;13.582;2023-04-03T00:00:31;11.60;99.90
61004;DHT22;46889;37.310;13.582;2023-04-03T00:02:57;11.60;99.90
61004;DHT22;46889;37.310;13.582;2023-04-03T00:05:24;11.50;99.90
61004;DHT22;46889;37.310;13.582;2023-04-03T00:07:51;11.50;99.90
61004;DHT22;46889;37.310;13.582;2023-04-03T00:10:17;11.50;99.90
61004;DHT22;46889;37.310;13.582;2023-04-03T00:12:43;11.60;99.90
61004;DHT22;46889;37.310;13.582;2023-04-03T00:15:09;11.60;99.90
61004;DHT22;46889;37.310;13.582;2023-04-03T00:17:35;11.60;99.90
61004;DHT22;46889;37.310;13.582;2023-04-03T00:20:02;11.50;99.90
61004;DHT22;46889;37.310;13.582;2023-04-03T00:22:29;11.60;99.90
61004;DHT22;46889;37.310;13.582;2023-04-03T00:24:55;11.60;99.90
61004;DHT22;46889;37.310;13.582;2023-04-03T00:27:21;11.60;99.90
61004;DHT22;46889;37.310;13.582;2023-04-03T00:29:47;11.70;99.90
61004;DHT22;46889;37.310;13.582;2023-04-03T00:32:14;11.70;99.90
61004;DHT22;46889;37.310;13.582;2023-04-03T00:34:40;11.60;99.90
61004;DHT22;46889;37.310;13.582;2023-04-03T00:37:06;11.60;99.90
61004;DHT22;46889;37.310;13.582;2023-04-03T00:39:33;11.60;99.90
61004;DHT22;46889;37.310;13.582;2023-04-03T00:41:59;11.60;99.90
61004;DHT22;46889;37.310;13.582;2023-04-03T00:47:02;11.70;99.90
61004;DHT22;46889;37.310;13.582;2023-04-03T00:49:29;11.70;99.90
61004;DHT22;46889;37.310;13.582;2023-04-03T00:51:56;11.70;99.90
61004;DHT22;46889;37.310;13.582;2023-04-03T00:54:23;11.70;99.90
61004;DHT22;46889;37.310;13.582;2023-04-03T00:56:51;11.80;99.90
61004;DHT22;46889;37.310;13.582;2023-04-03T00:59:22;11.90;99.90
61004;DHT22;46889;37.310;13.582;2023-04-03T01:01:55;11.90;99.90
61004;DHT22;46889;37.310;13.582;2023-04-03T01:04:42;11.90;99.90
61004;DHT22;46889;37.310;13.582;2023-04-03T01:07:11;11.80;99.90
61004;DHT22;46889;37.310;13.582;2023-04-03T01:09:39;11.80;99.90
61004;DHT22;46889;37.310;13.582;2023-04-03T01:12:28;11.90;99.90
61004;DHT22;46889;37.310;13.582;2023-04-03T01:14:58;11.90;99.90
61004;DHT22;46889;37.310;13.582;2023-04-03T01:17:29;11.90;99.90
61004;DHT22;46889;37.310;13.582;2023-04-03T01:23:30;11.90;99.90
61004;DHT22;46889;37.310;13.582;2023-04-03T01:25:54;11.90;99.90
61004;DHT22;46889;37.310;13.582;2023-04-03T01:28:32;11.90;99.90
61004;DHT22;46889;37.310;13.582;2023-04-03T01:31:22;12.00;99.90
61004;DHT22;46889;37.310;13.582;2023-04-03T01:33:50;12.00;99.90
61004;DHT22;46889;37.310;13.582;2023-04-03T01:36:24;12.00;99.90
61004;DHT22;46889;37.310;13.582;2023-04-03T01:38:52;12.00;99.90
61004;DHT22;46889;37.310;13.582;2023-04-03T01:41:20;11.90;99.90
61004;DHT22;46889;37.310;13.582;2023-04-03T01:43:48;11.80;99.90
61004;DHT22;46889;37.310;13.582;2023-04-03T01:46:17;11.60;99.90
61004;DHT22;46889;37.310;13.582;2023-04-03T01:48:45;11.50;99.90
61004;DHT22;46889;37.310;13.582;2023-04-03T01:51:12;11.70;99.90
61004;DHT22;46889;37.310;13.582;2023-04-03T01:53:42;11.80;99.90
61004;DHT22;46889;37.310;13.582;2023-04-03T01:56:08;11.80;99.90
61004;DHT22;46889;37.310;13.582;2023-04-03T01:58:34;11.70;99.90
61004;DHT22;46889;37.310;13.582;2023-04-03T02:01:01;11.70;99.90
61004;DHT22;46889;37.310;13.582;2023-04-03T02:03:32;11.50;99.90
61004;DHT22;46889;37.310;13.582;2023-04-03T02:06:02;11.30;99.90
61004;DHT22;46889;37.310;13.582;2023-04-03T02:08:32;11.20;99.90
61004;DHT22;46889;37.310;13.582;2023-04-03T02:10:58;11.10;99.90
61004;DHT22;46889;37.310;13.582;2023-04-03T02:13:24;10.90;99.90
61004;DHT22;46889;37.310;13.582;2023-04-03T02:15:54;10.80;99.90
61004;DHT22;46889;37.310;13.582;2023-04-03T02:18:21;10.80;99.90
61004;DHT22;46889;37.310;13.582;2023-04-03T02:20:47;10.90;99.90
61004;DHT22;46889;37.310;13.582;2023-04-03T02:23:14;10.80;99.90
61004;DHT22;46889;37.310;13.582;2023-04-03T02:25:40;10.60;99.90
61004;DHT22;46889;37.310;13.582;2023-04-03T02:28:06;10.50;99.90
61004;DHT22;46889;37.310;13.582;2023-04-03T02:30:32;10.50;99.90
61004;DHT22;46889;37.310;13.582;2023-04-03T02:32:58;10.60;99.90
61004;DHT22;46889;37.310;13.582;2023-04-03T02:35:25;10.60;99.90
61004;DHT22;46889;37.310;13.582;2023-04-03T02:37:51;10.60;99.90
61004;DHT22;46889;37.310;13.582;2023-04-03T02:40:17;10.40;99.90
61004;DHT22;46889;37.310;13.582;2023-04-03T02:42:44;10.40;99.90
61004;DHT22;46889;37.310;13.582;2023-04-03T02:45:10;10.20;99.90
61004;DHT22;46889;37.310;13.582;2023-04-03T02:47:36;10.10;99.90
61004;DHT22;46889;37.310;13.582;2023-04-03T02:50:03;10.10;99.90
61004;DHT22;46889;37.310;13.582;2023-04-03T02:52:29;10.00;99.90
61004;DHT22;46889;37.310;13.582;2023-04-03T02:54:56;10.00;99.90
61004;DHT22;46889;37.310;13.582;2023-04-03T02:57:22;10.00;99.90
61004;DHT22;46889;37.310;13.582;2023-04-03T02:59:51;9.90;99.90
61004;DHT22;46889;37.310;13.582;2023-04-03T03:02:17;9.90;99.90
61004;DHT22;46889;37.310;13.582;2023-04-03T03:04:44;10.00;99.90
61004;DHT22;46889;37.310;13.582;2023-04-03T03:07:10;10.00;99.90
61004;DHT22;46889;37.310;13.582;2023-04-03T03:09:36;10.10;99.90
61004;DHT22;46889;37.310;13.582;2023-04-03T03:12:03;10.20;99.90
61004;DHT22;46889;37.310;13.582;2023-04-03T03:14:29;10.10;99.90
61004;DHT22;46889;37.310;13.582;2023-04-03T03:16:55;10.10;99.90
61004;DHT22;46889;37.310;13.582;2023-04-03T03:19:21;9.90;99.90
61004;DHT22;46889;37.310;13.582;2023-04-03T03:21:47;9.90;99.90
61004;DHT22;46889;37.310;13.582;2023-04-03T03:24:13;9.90;99.90
61004;DHT22;46889;37.310;13.582;2023-04-03T03:26:39;9.90;99.90
61004;DHT22;46889;37.310;13.582;2023-04-03T03:29:06;9.90;99.90
61004;DHT22;46889;37.310;13.582;2023-04-03T03:31:32;9.80;99.90
61004;DHT22;46889;37.310;13.582;2023-04-03T03:33:58;9.80;99.90
61004;DHT22;46889;37.310;13.582;2023-04-03T03:36:25;9.80;99.90
61004;DHT22;46889;37.310;13.582;2023-04-03T03:38:50;9.80;99.90
61004;DHT22;46889;37.310;13.582;2023-04-03T03:41:17;9.80;99.90
61004;DHT22;46889;37.310;13.582;2023-04-03T03:43:44;9.90;99.90
61004;DHT22;46889;37.310;13.582;2023-04-03T03:46:12;9.90;99.90
61004;DHT22;46889;37.310;13.582;2023-04-03T03:48:38;9.90;99.90
61004;DHT22;46889;37.310;13.582;2023-04-03T03:51:05;9.80;99.90
61004;DHT22;46889;37.310;13.582;2023-04-03T03:53:31;9.90;99.90
61004;DHT22;46889;37.310;13.582;2023-04-03T03:55:57;9.90;99.90
61004;DHT22;46889;37.310;13.582;2023-04-03T03:58:24;9.70;99.90
61004;DHT22;46889;37.310;13.582;2023-04-03T04:00:50;9.70;99.90
61004;DHT22;46889;37.310;13.582;2023-04-03T04:03:17;9.60;99.90
61004;DHT22;46889;37.310;13.582;2023-04-03T04:05:43;9.50;99.90
61004;DHT22;46889;37.310;13.582;2023-04-03T04:08:09;9.60;99.90
61004;DHT22;46889;37.310;13.582;2023-04-03T04:10:37;9.60;99.90
61004;DHT22;46889;37.310;13.582;2023-04-03T04:13:05;9.70;99.90
61004;DHT22;46889;37.310;13.582;2023-04-03T04:15:31;9.80;99.90
61004;DHT22;46889;37.310;13.582;2023-04-03T04:17:57;9.80;99.90
61004;DHT22;46889;37.310;13.582;2023-04-03T04:20:23;9.80;99.90
61004;DHT22;46889;37.310;13.582;2023-04-03T04:22:49;9.80;99.90
61004;DHT22;46889;37.310;13.582;2023-04-03T04:25:16;9.70;99.90
61004;DHT22;46889;37.310;13.582;2023-04-03T04:27:42;9.80;99.90
61004;DHT22;46889;37.310;13.582;2023-04-03T04:30:11;9.90;99.90
61004;DHT22;46889;37.310;13.582;2023-04-03T04:32:38;9.80;99.90
61004;DHT22;46889;37.310;13.582;2023-04-03T04:35:04;9.90;99.90
61004;DHT22;46889;37.310;13.582;2023-04-03T04:37:31;9.90;99.90
61004;DHT22;46889;37.310;13.582;2023-04-03T04:39:57;9.90;99.90
61004;DHT22;46889;37.310;13.582;2023-04-03T04:42:23;9.90;99.90
61004;DHT22;46889;37.310;13.582;2023-04-03T04:44:49;9.80;99.90
61004;DHT22;46889;37.310;13.582;2023-04-03T04:47:15;9.70;99.90
61004;DHT22;46889;37.310;13.582;2023-04-03T04:49:41;9.70;99.90
61004;DHT22;46889;37.310;13.582;2023-04-03T04:52:08;9.80;99.90
61004;DHT22;46889;37.310;13.582;2023-04-03T04:54:34;9.70;99.90
61004;DHT22;46889;37.310;13.582;2023-04-03T04:57:00;9.60;99.90
61004;DHT22;46889;37.310;13.582;2023-04-03T04:59:27;9.60;99.90
61004;DHT22;46889;37.310;13.582;2023-04-03T05:01:53;9.70;99.90
61004;DHT22;46889;37.310;13.582;2023-04-03T05:04:19;9.70;99.90
61004;DHT22;46889;37.310;13.582;2023-04-03T05:06:45;9.70;99.90
61004;DHT22;46889;37.310;13.582;2023-04-03T05:09:12;9.60;99.90
61004;DHT22;46889;37.310;13.582;2023-04-03T05:11:38;9.60;99.90
61004;DHT22;46889;37.310;13.582;2023-04-03T05:14:04;9.50;99.90
61004;DHT22;46889;37.310;13.582;2023-04-03T05:16:32;9.50;99.90
61004;DHT22;46889;37.310;13.582;2023-04-03T05:18:58;9.40;99.90
61004;DHT22;46889;37.310;13.582;2023-04-03T05:21:26;9.40;99.90
61004;DHT22;46889;37.310;13.582;2023-04-03T05:23:53;9.50;99.90
61004;DHT22;46889;37.310;13.582;2023-04-03T05:26:19;9.70;99.90
61004;DHT22;46889;37.310;13.582;2023-04-03T05:28:46;9.70;99.90
61004;DHT22;46889;37.310;13.582;2023-04-03T05:31:13;9.70;99.90
61004;DHT22;46889;37.310;13.582;2023-04-03T05:33:40;9.80;99.90
61004;DHT22;46889;37.310;13.582;2023-04-03T05:36:06;9.80;99.90
61004;DHT22;46889;37.310;13.582;2023-04-03T05:38:33;9.70;99.90
61004;DHT22;46889;37.310;13.582;2023-04-03T05:41:00;9.90;99.90
61004;DHT22;46889;37.310;13.582;2023-04-03T05:43:26;10.20;99.90
61004;DHT22;46889;37.310;13.582;2023-04-03T05:45:52;10.50;99.90
61004;DHT22;46889;37.310;13.582;2023-04-03T05:48:18;10.70;99.90
61004;DHT22;46889;37.310;13.582;2023-04-03T05:50:45;10.80;99.90
61004;DHT22;46889;37.310;13.582;2023-04-03T05:53:21;11.00;99.90
61004;DHT22;46889;37.310;13.582;2023-04-03T05:55:48;11.20;99.90
61004;DHT22;46889;37.310;13.582;2023-04-03T05:58:14;11.30;99.90
61004;DHT22;46889;37.310;13.582;2023-04-03T06:00:41;11.50;99.90
61004;DHT22;46889;37.310;13.582;2023-04-03T06:03:08;11.70;99.90
61004;DHT22;46889;37.310;13.582;2023-04-03T06:05:34;12.10;99.90
61004;DHT22;46889;37.310;13.582;2023-04-03T06:08:00;12.70;99.90
61004;DHT22;46889;37.310;13.582;2023-04-03T06:10:27;12.80;99.90
61004;DHT22;46889;37.310;13.582;2023-04-03T06:12:53;13.00;99.90
61004;DHT22;46889;37.310;13.582;2023-04-03T06:15:25;12.50;99.90
61004;DHT22;46889;37.310;13.582;2023-04-03T06:17:52;12.20;99.90
61004;DHT22;46889;37.310;13.582;2023-04-03T06:20:18;12.40;99.90
61004;DHT22;46889;37.310;13.582;2023-04-03T06:22:44;13.10;99.90
61004;DHT22;46889;37.310;13.582;2023-04-03T06:25:10;13.70;99.90
61004;DHT22;46889;37.310;13.582;2023-04-03T06:27:36;13.90;99.90
61004;DHT22;46889;37.310;13.582;2023-04-03T06:30:03;15.50;99.90
61004;DHT22;46889;37.310;13.582;2023-04-03T06:32:30;17.10;99.90
61004;DHT22;46889;37.310;13.582;2023-04-03T06:34:56;19.20;99.90
61004;DHT22;46889;37.310;13.582;2023-04-03T06:37:23;20.20;99.90
61004;DHT22;46889;37.310;13.582;2023-04-03T06:39:53;20.40;99.90
61004;DHT22;46889;37.310;13.582;2023-04-03T06:42:19;19.30;99.90
61004;DHT22;46889;37.310;13.582;2023-04-03T06:44:45;18.60;99.90
61004;DHT22;46889;37.310;13.582;2023-04-03T06:47:13;18.30;99.90
61004;DHT22;46889;37.310;13.582;2023-04-03T06:49:39;18.70;99.90
61004;DHT22;46889;37.310;13.582;2023-04-03T06:52:07;19.00;99.90
61004;DHT22;46889;37.310;13.582;2023-04-03T06:54:33;19.30;99.90
61004;DHT22;46889;37.310;13.582;2023-04-03T06:57:00;19.70;99.90
61004;DHT22;46889;37.310;13.582;2023-04-03T06:59:27;20.90;99.90
61004;DHT22;46889;37.310;13.582;2023-04-03T07:01:54;20.60;99.90
61004;DHT22;46889;37.310;13.582;2023-04-03T07:04:20;21.80;99.90
61004;DHT22;46889;37.310;13.582;2023-04-03T07:06:47;20.90;99.90
61004;DHT22;46889;37.310;13.582;2023-04-03T07:09:15;21.60;99.90
61004;DHT22;46889;37.310;13.582;2023-04-03T07:11:41;21.80;99.90
61004;DHT22;46889;37.310;13.582;2023-04-03T07:14:07;21.30;99.90
61004;DHT22;46889;37.310;13.582;2023-04-03T07:16:34;20.10;99.90
61004;DHT22;46889;37.310;13.582;2023-04-03T07:19:01;19.30;99.90
61004;DHT22;46889;37.310;13.582;2023-04-03T07:21:27;19.00;99.90
61004;DHT22;46889;37.310;13.582;2023-04-03T07:23:54;17.10;99.90
61004;DHT22;46889;37.310;13.582;2023-04-03T07:26:21;17.20;99.90
61004;DHT22;46889;37.310;13.582;2023-04-03T07:28:48;18.00;99.90
61004;DHT22;46889;37.310;13.582;2023-04-03T07:31:15;19.20;99.90
61004;DHT22;46889;37.310;13.582;2023-04-03T07:33:43;18.10;99.90
61004;DHT22;46889;37.310;13.582;2023-04-03T07:36:14;18.30;99.90
61004;DHT22;46889;37.310;13.582;2023-04-03T07:38:40;18.40;99.90
61004;DHT22;46889;37.310;13.582;2023-04-03T07:41:06;18.70;99.90
61004;DHT22;46889;37.310;13.582;2023-04-03T07:43:36;18.50;99.90
61004;DHT22;46889;37.310;13.582;2023-04-03T07:46:05;18.60;99.90
61004;DHT22;46889;37.310;13.582;2023-04-03T07:48:31;18.30;99.90
61004;DHT22;46889;37.310;13.582;2023-04-03T07:51:01;18.50;99.90
61004;DHT22;46889;37.310;13.582;2023-04-03T07:53:27;18.70;99.90
61004;DHT22;46889;37.310;13.582;2023-04-03T07:55:53;18.30;99.90
61004;DHT22;46889;37.310;13.582;2023-04-03T07:58:22;18.70;99.90
61004;DHT22;46889;37.310;13.582;2023-04-03T08:00:49;18.20;99.90
61004;DHT22;46889;37.310;13.582;2023-04-03T08:03:15;18.70;99.90
61004;DHT22;46889;37.310;13.582;2023-04-03T08:05:46;18.70;99.90
61004;DHT22;46889;37.310;13.582;2023-04-03T08:08:15;18.70;99.90
61004;DHT22;46889;37.310;13.582;2023-04-03T08:10:42;18.40;99.90
61004;DHT22;46889;37.310;13.582;2023-04-03T08:13:09;18.20;99.90
61004;DHT22;46889;37.310;13.582;2023-04-03T08:15:36;17.90;99.90
61004;DHT22;46889;37.310;13.582;2023-04-03T08:18:03;18.00;99.90
61004;DHT22;46889;37.310;13.582;2023-04-03T08:20:29;18.00;99.90
61004;DHT22;46889;37.310;13.582;2023-04-03T08:22:56;18.40;99.90
61004;DHT22;46889;37.310;13.582;2023-04-03T08:25:22;17.60;99.90
61004;DHT22;46889;37.310;13.582;2023-04-03T08:27:48;17.70;99.90
61004;DHT22;46889;37.310;13.582;2023-04-03T08:30:14;16.70;99.90
61004;DHT22;46889;37.310;13.582;2023-04-03T08:32:41;17.30;99.90
61004;DHT22;46889;37.310;13.582;2023-04-03T08:35:10;17.10;99.90
61004;DHT22;46889;37.310;13.582;2023-04-03T08:37:38;16.90;99.90
61004;DHT22;46889;37.310;13.582;2023-04-03T08:40:05;16.60;99.90
61004;DHT22;46889;37.310;13.582;2023-04-03T08:45:59;16.10;99.90
61004;DHT22;46889;37.310;13.582;2023-04-03T08:48:27;15.50;99.90
61004;DHT22;46889;37.310;13.582;2023-04-03T08:50:59;15.40;99.90
61004;DHT22;46889;37.310;13.582;2023-04-03T08:53:32;15.60;99.90
61004;DHT22;46889;37.310;13.582;2023-04-03T08:56:04;15.60;99.90
61004;DHT22;46889;37.310;13.582;2023-04-03T08:58:37;15.10;99.90
61004;DHT22;46889;37.310;13.582;2023-04-03T09:01:15;15.30;99.90
61004;DHT22;46889;37.310;13.582;2023-04-03T09:03:42;15.40;99.90
61004;DHT22;46889;37.310;13.582;2023-04-03T09:06:19;15.40;99.90
61004;DHT22;46889;37.310;13.582;2023-04-03T09:20:24;15.40;99.90
61004;DHT22;46889;37.310;13.582;2023-04-03T09:22:54;15.40;99.90
61004;DHT22;46889;37.310;13.582;2023-04-03T09:25:24;15.50;99.90
61004;DHT22;46889;37.310;13.582;2023-04-03T09:27:53;15.20;99.90
61004;DHT22;46889;37.310;13.582;2023-04-03T09:30:22;15.20;99.90
61004;DHT22;46889;37.310;13.582;2023-04-03T09:32:52;15.60;99.90
61004;DHT22;46889;37.310;13.582;2023-04-03T09:35:33;15.60;99.90
61004;DHT22;46889;37.310;13.582;2023-04-03T09:38:20;15.30;99.90
61004;DHT22;46889;37.310;13.582;2023-04-03T09:41:05;15.20;99.90
61004;DHT22;46889;37.310;13.582;2023-04-03T09:43:33;15.40;99.90
61004;DHT22;46889;37.310;13.582;2023-04-03T09:49:04;15.30;99.90
61004;DHT22;46889;37.310;13.582;2023-04-03T09:51:31;15.40;99.90
61004;DHT22;46889;37.310;13.582;2023-04-03T09:53:58;15.40;99.90
61004;DHT22;46889;37.310;13.582;2023-04-03T09:56:27;15.70;99.90
61004;DHT22;46889;37.310;13.582;2023-04-03T10:01:35;16.20;99.90
61004;DHT22;46889;37.310;13.582;2023-04-03T10:06:38;16.50;99.90
61004;DHT22;46889;37.310;13.582;2023-04-03T10:09:25;16.60;99.90
61004;DHT22;46889;37.310;13.582;2023-04-03T10:12:12;16.90;99.90
61004;DHT22;46889;37.310;13.582;2023-04-03T10:20:02;16.90;99.90
61004;DHT22;46889;37.310;13.582;2023-04-03T10:23:02;16.70;99.90
61004;DHT22;46889;37.310;13.582;2023-04-03T10:39:34;16.70;99.90
61004;DHT22;46889;37.310;13.582;2023-04-03T10:47:58;16.60;99.90
61004;DHT22;46889;37.310;13.582;2023-04-03T10:58:38;16.60;99.90
61004;DHT22;46889;37.310;13.582;2023-04-03T11:01:14;16.80;99.90
61004;DHT22;46889;37.310;13.582;2023-04-03T11:03:51;16.80;99.90
61004;DHT22;46889;37.310;13.582;2023-04-03T11:06:21;16.70;99.90
61004;DHT22;46889;37.310;13.582;2023-04-03T11:11:30;16.70;99.90
61004;DHT22;46889;37.310;13.582;2023-04-03T11:14:02;16.30;99.90
61004;DHT22;46889;37.310;13.582;2023-04-03T11:16:31;16.20;99.90
61004;DHT22;46889;37.310;13.582;2023-04-03T11:19:03;16.70;99.90
61004;DHT22;46889;37.310;13.582;2023-04-03T11:21:45;16.70;99.90
61004;DHT22;46889;37.310;13.582;2023-04-03T11:24:27;17.10;99.90
61004;DHT22;46889;37.310;13.582;2023-04-03T11:26:55;17.60;99.90
61004;DHT22;46889;37.310;13.582;2023-04-03T11:29:40;17.60;99.90
61004;DHT22;46889;37.310;13.582;2023-04-03T11:34:57;17.50;99.90
61004;DHT22;46889;37.310;13.582;2023-04-03T11:37:35;17.60;99.90
61004;DHT22;46889;37.310;13.582;2023-04-03T11:42:52;18.00;99.90
61004;DHT22;46889;37.310;13.582;2023-04-03T11:48:00;18.20;99.90
61004;DHT22;46889;37.310;13.582;2023-04-03T11:55:53;17.30;99.90
61004;DHT22;46889;37.310;13.582;2023-04-03T12:13:40;17.90;99.90
61004;DHT22;46889;37.310;13.582;2023-04-03T12:16:25;17.60;99.90
61004;DHT22;46889;37.310;13.582;2023-04-03T12:21:22;17.60;99.90
61004;DHT22;46889;37.310;13.582;2023-04-03T12:26:47;17.60;99.90
61004;DHT22;46889;37.310;13.582;2023-04-03T12:46:11;15.70;99.90
61004;DHT22;46889;37.310;13.582;2023-04-03T12:51:40;15.20;99.90
61004;DHT22;46889;37.310;13.582;2023-04-03T12:54:30;15.10;99.90
61004;DHT22;46889;37.310;13.582;2023-04-03T12:59:36;15.60;99.90
61004;DHT22;46889;37.310;13.582;2023-04-03T13:02:08;15.50;99.90
61004;DHT22;46889;37.310;13.582;2023-04-03T13:04:38;15.50;99.90
61004;DHT22;46889;37.310;13.582;2023-04-03T13:07:04;15.50;99.90
61004;DHT22;46889;37.310;13.582;2023-04-03T13:09:31;15.20;99.90
61004;DHT22;46889;37.310;13.582;2023-04-03T13:12:12;14.90;99.90
61004;DHT22;46889;37.310;13.582;2023-04-03T13:14:38;14.70;99.90
61004;DHT22;46889;37.310;13.582;2023-04-03T13:17:12;14.40;99.90
61004;DHT22;46889;37.310;13.582;2023-04-03T13:19:40;14.20;99.90
61004;DHT22;46889;37.310;13.582;2023-04-03T13:22:34;14.30;99.90
61004;DHT22;46889;37.310;13.582;2023-04-03T13:25:07;14.50;99.90
61004;DHT22;46889;37.310;13.582;2023-04-03T13:27:36;14.60;99.90
61004;DHT22;46889;37.310;13.582;2023-04-03T13:30:05;14.80;99.90
61004;DHT22;46889;37.310;13.582;2023-04-03T13:32:32;14.70;99.90
61004;DHT22;46889;37.310;13.582;2023-04-03T13:34:59;14.70;99.90
61004;DHT22;46889;37.310;13.582;2023-04-03T13:37:30;15.00;99.90
61004;DHT22;46889;37.310;13.582;2023-04-03T13:40:03;15.00;99.90
61004;DHT22;46889;37.310;13.582;2023-04-03T13:42:32;15.10;99.90
61004;DHT22;46889;37.310;13.582;2023-04-03T13:45:22;15.40;99.90
61004;DHT22;46889;37.310;13.582;2023-04-03T13:47:51;15.50;99.90
61004;DHT22;46889;37.310;13.582;2023-04-03T13:50:21;15.70;99.90
61004;DHT22;46889;37.310;13.582;2023-04-03T13:53:11;15.20;99.90
61004;DHT22;46889;37.310;13.582;2023-04-03T13:55:54;15.30;99.90
61004;DHT22;46889;37.310;13.582;2023-04-03T13:58:32;15.50;99.90
61004;DHT22;46889;37.310;13.582;2023-04-03T14:01:10;15.50;99.90
61004;DHT22;46889;37.310;13.582;2023-04-03T14:03:57;15.60;99.90
61004;DHT22;46889;37.310;13.582;2023-04-03T14:06:24;15.70;99.90
61004;DHT22;46889;37.310;13.582;2023-04-03T14:08:51;15.80;99.90
61004;DHT22;46889;37.310;13.582;2023-04-03T14:11:24;16.20;99.90
61004;DHT22;46889;37.310;13.582;2023-04-03T14:13:53;16.00;99.90
61004;DHT22;46889;37.310;13.582;2023-04-03T14:16:22;16.00;99.90
61004;DHT22;46889;37.310;13.582;2023-04-03T14:18:49;15.90;99.90
61004;DHT22;46889;37.310;13.582;2023-04-03T14:21:18;16.10;99.90
61004;DHT22;46889;37.310;13.582;2023-04-03T14:23:45;16.00;99.90
61004;DHT22;46889;37.310;13.582;2023-04-03T14:26:17;16.00;99.90
61004;DHT22;46889;37.310;13.582;2023-04-03T14:28:46;16.10;99.90
61004;DHT22;46889;37.310;13.582;2023-04-03T14:31:15;15.90;99.90
61004;DHT22;46889;37.310;13.582;2023-04-03T14:33:41;16.10;99.90
61004;DHT22;46889;37.310;13.582;2023-04-03T14:36:22;16.20;99.90
61004;DHT22;46889;37.310;13.582;2023-04-03T14:38:49;16.40;99.90
61004;DHT22;46889;37.310;13.582;2023-04-03T14:41:20;16.50;99.90
61004;DHT22;46889;37.310;13.582;2023-04-03T14:43:47;16.40;99.90
61004;DHT22;46889;37.310;13.582;2023-04-03T14:46:17;16.20;99.90
61004;DHT22;46889;37.310;13.582;2023-04-03T14:48:44;16.40;99.90
61004;DHT22;46889;37.310;13.582;2023-04-03T14:51:12;16.40;99.90
61004;DHT22;46889;37.310;13.582;2023-04-03T14:53:41;16.70;99.90
61004;DHT22;46889;37.310;13.582;2023-04-03T14:56:26;16.90;99.90
61004;DHT22;46889;37.310;13.582;2023-04-03T14:58:58;17.00;99.90
61004;DHT22;46889;37.310;13.582;2023-04-03T15:01:25;17.00;99.90
61004;DHT22;46889;37.310;13.582;2023-04-03T15:03:52;16.70;99.90
61004;DHT22;46889;37.310;13.582;2023-04-03T15:06:18;16.70;99.90
61004;DHT22;46889;37.310;13.582;2023-04-03T15:08:46;16.50;99.90
61004;DHT22;46889;37.310;13.582;2023-04-03T15:11:13;16.50;99.90
61004;DHT22;46889;37.310;13.582;2023-04-03T15:13:39;16.50;99.90
61004;DHT22;46889;37.310;13.582;2023-04-03T15:16:16;16.30;99.90
61004;DHT22;46889;37.310;13.582;2023-04-03T15:18:45;16.20;99.90
61004;DHT22;46889;37.310;13.582;2023-04-03T15:21:12;16.20;99.90
61004;DHT22;46889;37.310;13.582;2023-04-03T15:23:38;16.10;99.90
61004;DHT22;46889;37.310;13.582;2023-04-03T15:26:04;16.10;99.90
61004;DHT22;46889;37.310;13.582;2023-04-03T15:28:35;16.20;99.90
61004;DHT22;46889;37.310;13.582;2023-04-03T15:31:03;15.80;99.90
61004;DHT22;46889;37.310;13.582;2023-04-03T15:33:31;15.60;99.90
61004;DHT22;46889;37.310;13.582;2023-04-03T15:35:58;15.50;99.90
61004;DHT22;46889;37.310;13.582;2023-04-03T15:38:24;15.50;99.90
61004;DHT22;46889;37.310;13.582;2023-04-03T15:40:50;15.70;99.90
61004;DHT22;46889;37.310;13.582;2023-04-03T15:43:16;15.70;99.90
61004;DHT22;46889;37.310;13.582;2023-04-03T15:45:43;15.70;99.90
61004;DHT22;46889;37.310;13.582;2023-04-03T15:48:11;15.60;99.90
61004;DHT22;46889;37.310;13.582;2023-04-03T15:50:38;15.60;99.90
61004;DHT22;46889;37.310;13.582;2023-04-03T15:53:04;15.70;99.90
61004;DHT22;46889;37.310;13.582;2023-04-03T15:55:34;15.70;99.90
61004;DHT22;46889;37.310;13.582;2023-04-03T15:58:01;15.80;99.90
61004;DHT22;46889;37.310;13.582;2023-04-03T16:00:29;15.70;99.90
61004;DHT22;46889;37.310;13.582;2023-04-03T16:02:59;15.60;99.90
61004;DHT22;46889;37.310;13.582;2023-04-03T16:05:27;15.80;99.90
61004;DHT22;46889;37.310;13.582;2023-04-03T16:07:53;15.90;99.90
61004;DHT22;46889;37.310;13.582;2023-04-03T16:10:20;15.90;99.90
61004;DHT22;46889;37.310;13.582;2023-04-03T16:12:46;15.90;99.90
61004;DHT22;46889;37.310;13.582;2023-04-03T16:15:13;15.60;99.90
61004;DHT22;46889;37.310;13.582;2023-04-03T16:17:40;15.60;99.90
61004;DHT22;46889;37.310;13.582;2023-04-03T16:20:11;15.50;99.90
61004;DHT22;46889;37.310;13.582;2023-04-03T16:22:37;15.40;99.90
61004;DHT22;46889;37.310;13.582;2023-04-03T16:25:05;15.40;99.90
61004;DHT22;46889;37.310;13.582;2023-04-03T16:27:31;15.40;99.90
61004;DHT22;46889;37.310;13.582;2023-04-03T16:29:57;15.40;99.90
61004;DHT22;46889;37.310;13.582;2023-04-03T16:32:24;15.30;99.90
61004;DHT22;46889;37.310;13.582;2023-04-03T16:34:52;15.40;99.90
61004;DHT22;46889;37.310;13.582;2023-04-03T16:37:18;15.40;99.90
61004;DHT22;46889;37.310;13.582;2023-04-03T16:39:46;15.40;99.90
61004;DHT22;46889;37.310;13.582;2023-04-03T16:42:12;15.30;99.90
61004;DHT22;46889;37.310;13.582;2023-04-03T16:44:39;15.30;99.90
61004;DHT22;46889;37.310;13.582;2023-04-03T16:47:06;15.20;99.90
61004;DHT22;46889;37.310;13.582;2023-04-03T16:49:34;15.20;99.90
61004;DHT22;46889;37.310;13.582;2023-04-03T16:52:02;15.20;99.90
61004;DHT22;46889;37.310;13.582;2023-04-03T16:54:30;15.20;99.90
61004;DHT22;46889;37.310;13.582;2023-04-03T16:56:56;15.20;99.90
61004;DHT22;46889;37.310;13.582;2023-04-03T16:59:24;15.10;99.90
61004;DHT22;46889;37.310;13.582;2023-04-03T17:01:52;15.00;99.90
61004;DHT22;46889;37.310;13.582;2023-04-03T17:04:19;14.90;99.90
61004;DHT22;46889;37.310;13.582;2023-04-03T17:06:45;15.00;99.90
61004;DHT22;46889;37.310;13.582;2023-04-03T17:09:12;14.80;99.90
61004;DHT22;46889;37.310;13.582;2023-04-03T17:11:38;14.80;99.90
61004;DHT22;46889;37.310;13.582;2023-04-03T17:14:05;14.70;99.90
61004;DHT22;46889;37.310;13.582;2023-04-03T17:16:35;14.60;99.90
61004;DHT22;46889;37.310;13.582;2023-04-03T17:19:02;14.60;99.90
61004;DHT22;46889;37.310;13.582;2023-04-03T17:21:29;14.60;99.90
61004;DHT22;46889;37.310;13.582;2023-04-03T17:23:59;14.50;99.90
61004;DHT22;46889;37.310;13.582;2023-04-03T17:26:26;14.40;99.90
61004;DHT22;46889;37.310;13.582;2023-04-03T17:28:52;14.50;99.90